Terminal Aerodrome Forecast
Issued by NWS

Home | Current Version | Previous Version | Text Only | Print | Product List | Glossary On
Versions: 1 2 3 4 5 6 7 8 9 10 11 12 13 14 15 16 17 18 19 20 21 22 23 24
000
FTUS43 KMQT 010530
TAFSAW
TAF
KSAW 010530Z 0106/0206 36010KT P6SM OVC007
      TEMPO 0106/0109 SCT007 OVC010
     FM010900 35008KT P6SM BKN012
     FM011100 36007KT P6SM SCT015
     FM011300 02011KT P6SM SKC
     FM020100 00000KT P6SM SKC=

USA.gov is the U.S. government's official web portal to all federal, state and local government web resources and services.